Terminal Aerodrome Forecast
Issued by NWS Cleveland, OH

Home | Current Version | Previous Version | Text Only | Print | Product List | Glossary Off
Versions: 1 2 3 4 5 6 7 8 9 10 11 12 13 14 15 16 17

091
FTUS41 KCLE 211739
TAFYNG
TAF
KYNG 211739Z 2118/2218 30006KT 5SM BR BKN012
     FM211900 31008KT P6SM SCT012
     FM220200 32012G20KT P6SM SCT025 OVC035
     FM220500 34014G22KT P6SM OVC025
     FM221500 36012KT P6SM SCT025=

USA.gov is the U.S. government's official web portal to all federal, state and local government web resources and services.